Time;durP1;ratioP1;P1;durP2;ratioP2;P2;SDS_P1;SDS_P2;PMS_P1;PMS_P2;Temp;Humidity;BMP_temperature;BMP_pressure;BME280_temperature;BME280_humidity;BME280_pressure;Samples;Min_cycle;Max_cycle;Signal;HPM_P1;HPM_P2
2022/07/10 00:00:04;;;;;;;3.10;0.63;;;25.70;96.70;;;;;;4871948;29;20068;-76
2022/07/10 00:02:41;;;;;;;2.80;0.60;;;25.70;96.70;;;;;;4870393;29;20065;-76
2022/07/10 00:05:10;;;;;;;0.95;0.50;;;25.70;96.70;;;;;;4872345;29;20508;-76
2022/07/10 00:07:46;;;;;;;1.40;0.63;;;25.60;96.70;;;;;;4871459;29;20052;-77
2022/07/10 00:10:15;;;;;;;2.72;0.57;;;25.60;96.70;;;;;;4870283;29;20116;-76
2022/07/10 00:12:43;;;;;;;1.58;0.55;;;25.60;96.70;;;;;;4870930;29;20060;-76
2022/07/10 00:15:12;;;;;;;1.67;0.50;;;25.60;96.70;;;;;;4873352;29;20128;-76
2022/07/10 00:17:41;;;;;;;1.33;0.55;;;25.60;96.70;;;;;;4872083;29;20056;-77
2022/07/10 00:20:11;;;;;;;0.85;0.50;;;25.50;96.70;;;;;;4856134;29;20048;-76
2022/07/10 00:22:39;;;;;;;1.60;0.50;;;25.30;96.70;;;;;;4870055;29;20056;-76
2022/07/10 00:25:10;;;;;;;1.02;0.50;;;25.40;96.70;;;;;;4871099;29;20049;-76
2022/07/10 00:27:38;;;;;;;1.80;0.50;;;25.40;96.70;;;;;;4869526;29;20072;-77
2022/07/10 00:30:07;;;;;;;1.42;0.50;;;25.40;96.70;;;;;;4855317;29;20056;-77
2022/07/10 00:32:35;;;;;;;1.75;0.50;;;25.30;96.70;;;;;;4868114;29;20045;-76
2022/07/10 00:35:06;;;;;;;1.52;0.70;;;25.30;96.70;;;;;;4869887;29;20057;-76
2022/07/10 00:37:34;;;;;;;1.00;0.38;;;25.30;96.70;;;;;;4871075;29;20057;-77
2022/07/10 00:40:04;;;;;;;1.48;0.60;;;25.30;96.70;;;;;;4871167;29;20109;-76
2022/07/10 00:42:32;;;;;;;2.22;0.52;;;25.20;96.70;;;;;;4871262;29;20053;-76
2022/07/10 00:45:00;;;;;;;1.42;0.60;;;25.20;96.70;;;;;;4871187;29;20132;-76
2022/07/10 00:47:29;;;;;;;1.35;0.95;;;25.30;96.70;;;;;;4885540;29;20412;-76
2022/07/10 00:49:57;;;;;;;3.03;0.93;;;25.00;96.70;;;;;;4886020;29;20144;-76
2022/07/10 00:52:27;;;;;;;3.08;0.77;;;24.90;96.70;;;;;;4869521;29;20056;-76
2022/07/10 00:54:56;;;;;;;1.75;0.82;;;24.90;96.70;;;;;;4866963;29;20072;-76
2022/07/10 00:57:24;;;;;;;1.98;0.95;;;24.80;96.70;;;;;;4855903;29;20056;-76
2022/07/10 00:59:52;;;;;;;1.15;0.75;;;25.00;96.70;;;;;;4870632;29;20077;-76
2022/07/10 01:02:21;;;;;;;1.42;0.90;;;24.60;96.70;;;;;;4883693;29;20048;-75
2022/07/10 01:04:49;;;;;;;4.32;0.65;;;24.30;96.70;;;;;;4872978;29;20139;-77
2022/07/10 01:07:18;;;;;;;1.90;0.73;;;24.20;96.70;;;;;;4870699;29;20152;-77
2022/07/10 01:09:48;;;;;;;0.90;0.75;;;24.20;96.70;;;;;;4885752;29;20068;-76
2022/07/10 01:12:17;;;;;;;1.63;0.52;;;24.30;96.70;;;;;;4870254;29;20093;-77
2022/07/10 01:14:45;;;;;;;2.10;0.75;;;24.30;96.70;;;;;;4869449;29;20401;-77
2022/07/10 01:17:15;;;;;;;4.43;0.80;;;24.50;96.70;;;;;;4886488;29;20124;-77
2022/07/10 01:19:43;;;;;;;0.98;0.75;;;24.60;96.70;;;;;;4885212;29;20466;-77
2022/07/10 01:22:13;;;;;;;1.65;0.73;;;24.60;96.70;;;;;;4855476;29;20144;-77
2022/07/10 01:24:41;;;;;;;1.98;0.60;;;24.50;96.70;;;;;;4885200;29;20785;-77
2022/07/10 01:27:12;;;;;;;1.58;0.80;;;24.40;96.70;;;;;;4870798;29;20063;-77
2022/07/10 01:29:41;;;;;;;1.45;0.85;;;24.20;96.70;;;;;;4869331;29;20041;-77
2022/07/10 01:32:09;;;;;;;2.25;0.80;;;24.20;96.70;;;;;;4870671;29;20053;-77
2022/07/10 01:34:37;;;;;;;1.17;0.70;;;24.30;96.70;;;;;;4870638;29;20072;-77
2022/07/10 01:37:06;;;;;;;2.53;1.02;;;24.30;96.70;;;;;;4855204;29;20053;-77
2022/07/10 01:39:35;;;;;;;3.17;0.80;;;24.30;96.70;;;;;;4854692;29;20049;-77
2022/07/10 01:42:04;;;;;;;2.15;0.70;;;24.10;96.70;;;;;;4869235;29;20049;-77
2022/07/10 01:44:32;;;;;;;2.97;0.70;;;24.10;96.70;;;;;;4885356;29;20053;-77
2022/07/10 01:47:00;;;;;;;1.20;0.60;;;24.00;96.70;;;;;;4869214;29;20489;-76
2022/07/10 01:49:28;;;;;;;2.00;0.60;;;23.90;96.70;;;;;;4870059;29;20495;-76
2022/07/10 01:51:56;;;;;;;3.33;0.80;;;24.00;96.70;;;;;;4869347;29;20140;-76
2022/07/10 01:54:24;;;;;;;0.95;0.60;;;24.20;96.70;;;;;;4869091;29;20416;-76
2022/07/10 01:56:54;;;;;;;1.52;0.65;;;24.00;96.70;;;;;;4871378;29;20531;-76
2022/07/10 01:59:22;;;;;;;0.70;0.60;;;23.90;96.70;;;;;;4870836;29;20056;-76
2022/07/10 02:01:50;;;;;;;4.03;0.70;;;24.00;96.70;;;;;;4868553;29;20044;-76
2022/07/10 02:07:05;;;;;;;2.17;0.80;;;23.70;96.70;;;;;;4884109;29;20104;-76
2022/07/10 02:09:33;;;;;;;1.13;0.50;;;23.60;96.70;;;;;;4854357;29;20143;-77
2022/07/10 02:12:04;;;;;;;2.78;0.65;;;23.70;96.70;;;;;;4868393;29;20136;-77
2022/07/10 02:14:32;;;;;;;2.15;0.60;;;23.60;96.70;;;;;;4870422;29;20527;-77
2022/07/10 02:17:00;;;;;;;1.70;0.70;;;23.70;96.70;;;;;;4868535;29;20049;-77
2022/07/10 02:19:29;;;;;;;1.58;0.85;;;23.60;96.70;;;;;;4871848;29;20049;-77
2022/07/10 02:21:57;;;;;;;2.90;0.73;;;23.70;96.70;;;;;;4878206;29;20061;-77
2022/07/10 02:24:26;;;;;;;1.08;0.80;;;23.80;96.70;;;;;;4866730;29;20147;-77
2022/07/10 02:26:55;;;;;;;2.92;0.70;;;23.90;96.70;;;;;;4874847;29;20096;-77
2022/07/10 02:29:24;;;;;;;2.38;0.70;;;23.70;96.70;;;;;;4868818;29;20076;-77
2022/07/10 02:31:52;;;;;;;2.58;1.00;;;23.60;96.70;;;;;;4850144;29;20056;-76
2022/07/10 02:34:21;;;;;;;1.50;0.70;;;23.40;96.70;;;;;;4870233;29;20056;-77
2022/07/10 02:36:50;;;;;;;4.22;0.80;;;23.30;96.70;;;;;;4869970;29;20101;-78
2022/07/10 02:39:18;;;;;;;2.47;0.70;;;23.20;96.70;;;;;;4867982;29;20088;-77
2022/07/10 02:41:46;;;;;;;3.42;0.70;;;23.20;96.70;;;;;;4868606;29;21408;-77
2022/07/10 02:44:14;;;;;;;1.33;0.50;;;23.40;96.70;;;;;;4869655;29;20053;-77
2022/07/10 02:46:44;;;;;;;1.98;0.70;;;23.50;96.70;;;;;;4853345;29;20053;-77
2022/07/10 02:49:12;;;;;;;2.05;0.57;;;23.30;96.70;;;;;;4883208;29;20052;-77
2022/07/10 02:51:40;;;;;;;1.98;0.60;;;23.30;96.70;;;;;;4852726;29;20053;-77
2022/07/10 02:54:08;;;;;;;2.95;0.60;;;23.20;96.70;;;;;;4868907;29;21050;-77
2022/07/10 02:56:37;;;;;;;4.00;0.68;;;23.30;96.70;;;;;;4867546;29;20052;-78
2022/07/10 02:59:06;;;;;;;1.58;0.50;;;23.30;96.70;;;;;;4868651;29;20049;-77
2022/07/10 03:01:34;;;;;;;2.25;0.80;;;23.20;96.70;;;;;;4868181;29;20566;-77
2022/07/10 03:04:04;;;;;;;2.55;0.60;;;23.20;96.70;;;;;;4870494;29;20053;-77
2022/07/10 03:06:32;;;;;;;2.38;0.80;;;23.30;96.70;;;;;;4870368;29;20041;-77
2022/07/10 03:09:00;;;;;;;1.40;0.98;;;23.20;96.70;;;;;;4883976;29;20453;-77
2022/07/10 03:11:28;;;;;;;1.85;0.73;;;23.10;96.70;;;;;;4868465;29;20047;-77
2022/07/10 03:13:56;;;;;;;2.05;0.50;;;22.80;96.70;;;;;;4869849;29;20056;-77
2022/07/10 03:16:24;;;;;;;1.58;0.75;;;22.90;96.70;;;;;;4887195;29;20349;-77
2022/07/10 03:18:52;;;;;;;1.42;0.50;;;22.80;96.70;;;;;;4872304;29;20061;-77
2022/07/10 03:21:22;;;;;;;1.70;0.85;;;23.00;96.70;;;;;;4872605;29;20061;-77
2022/07/10 03:23:50;;;;;;;0.93;0.40;;;23.20;96.70;;;;;;4873743;29;20076;-77
2022/07/10 03:26:18;;;;;;;2.00;0.70;;;23.20;96.70;;;;;;4857315;29;20056;-77
2022/07/10 03:28:46;;;;;;;3.17;0.80;;;23.10;96.70;;;;;;4872949;29;20053;-77
2022/07/10 03:31:14;;;;;;;2.72;0.60;;;23.00;96.70;;;;;;4872330;29;20413;-77
2022/07/10 03:33:42;;;;;;;2.85;0.40;;;22.70;96.70;;;;;;4885247;29;20053;-77
2022/07/10 03:36:10;;;;;;;0.77;0.57;;;22.90;96.70;;;;;;4884278;29;20108;-77
2022/07/10 03:38:39;;;;;;;1.00;0.57;;;22.70;96.70;;;;;;4872648;29;20377;-77
2022/07/10 03:41:09;;;;;;;2.00;0.60;;;22.70;96.70;;;;;;4872092;29;20124;-77
2022/07/10 03:43:36;;;;;;;3.20;0.70;;;22.70;96.70;;;;;;4859670;29;20052;-77
2022/07/10 03:46:05;;;;;;;1.33;0.50;;;22.80;96.70;;;;;;4857487;29;20397;-77
2022/07/10 03:48:33;;;;;;;2.20;0.60;;;22.70;96.70;;;;;;4871415;29;20214;-77
2022/07/10 03:51:01;;;;;;;0.80;0.55;;;22.60;96.70;;;;;;4873304;29;20416;-77
2022/07/10 03:53:29;;;;;;;1.95;0.40;;;22.50;96.70;;;;;;4856401;29;20037;-77
2022/07/10 03:56:00;;;;;;;2.35;0.63;;;22.40;96.70;;;;;;4871838;29;20060;-77
2022/07/10 03:58:28;;;;;;;2.00;0.55;;;22.50;96.70;;;;;;4870923;29;20674;-77
2022/07/10 04:00:56;;;;;;;2.30;0.63;;;22.70;96.70;;;;;;4888155;29;20056;-77
2022/07/10 04:03:24;;;;;;;1.60;0.63;;;22.80;96.70;;;;;;4874482;29;20049;-77
2022/07/10 04:05:52;;;;;;;1.55;0.60;;;22.80;96.70;;;;;;4887623;29;20054;-77
2022/07/10 04:08:20;;;;;;;1.50;0.57;;;22.80;96.70;;;;;;4872909;29;20055;-77
2022/07/10 04:10:49;;;;;;;3.20;0.40;;;22.90;96.70;;;;;;4871635;29;20238;-77
2022/07/10 04:13:18;;;;;;;1.98;0.65;;;22.90;96.70;;;;;;4870923;29;20172;-77
2022/07/10 04:15:46;;;;;;;2.33;0.63;;;22.60;96.70;;;;;;4872447;29;20049;-77
2022/07/10 04:18:14;;;;;;;4.60;0.63;;;22.80;96.70;;;;;;4855863;29;20105;-77
2022/07/10 04:20:42;;;;;;;2.55;0.65;;;23.00;96.70;;;;;;4871825;29;20069;-77
2022/07/10 04:23:10;;;;;;;1.48;0.98;;;22.90;96.70;;;;;;4873313;29;20049;-77
2022/07/10 04:25:38;;;;;;;1.65;0.65;;;22.90;96.70;;;;;;4855732;29;20097;-77
2022/07/10 04:28:06;;;;;;;1.23;0.65;;;23.00;96.70;;;;;;4871399;29;20053;-77
2022/07/10 04:30:36;;;;;;;1.75;0.70;;;23.00;96.70;;;;;;4886218;29;20132;-77
2022/07/10 04:33:04;;;;;;;1.73;0.70;;;22.90;96.70;;;;;;4868537;29;20128;-77
2022/07/10 04:35:32;;;;;;;1.83;0.70;;;22.80;96.70;;;;;;4870459;29;20040;-77
2022/07/10 04:38:00;;;;;;;1.85;0.63;;;22.80;96.70;;;;;;4873361;29;20049;-77
2022/07/10 04:40:28;;;;;;;4.72;0.88;;;22.70;96.70;;;;;;4870881;29;20092;-76
2022/07/10 04:42:56;;;;;;;2.05;0.70;;;22.80;96.70;;;;;;4878342;29;20064;-77
2022/07/10 04:45:24;;;;;;;1.25;0.60;;;22.80;96.70;;;;;;4870475;29;20092;-77
2022/07/10 04:47:54;;;;;;;4.20;0.80;;;22.70;96.70;;;;;;4884809;29;20140;-77
2022/07/10 04:50:22;;;;;;;1.48;0.85;;;22.90;96.70;;;;;;4870285;29;20477;-77
2022/07/10 04:52:50;;;;;;;2.75;0.80;;;22.90;96.70;;;;;;4852894;29;20493;-77
2022/07/10 04:55:18;;;;;;;1.58;0.80;;;22.50;96.70;;;;;;4870707;29;20037;-77
2022/07/10 04:57:46;;;;;;;1.40;0.70;;;22.60;96.70;;;;;;4886855;29;20049;-77
2022/07/10 05:00:14;;;;;;;1.67;0.75;;;22.70;96.70;;;;;;4870295;29;20052;-77
2022/07/10 05:02:42;;;;;;;1.73;0.50;;;22.60;96.70;;;;;;4869676;29;20633;-77
2022/07/10 05:05:12;;;;;;;2.72;0.88;;;22.70;96.70;;;;;;4869947;29;20049;-77
2022/07/10 05:07:39;;;;;;;3.35;0.93;;;22.80;96.70;;;;;;4870072;29;20140;-76
2022/07/10 05:10:08;;;;;;;3.60;0.68;;;22.60;96.70;;;;;;4871608;29;20448;-77
2022/07/10 05:12:36;;;;;;;2.50;0.60;;;22.60;96.70;;;;;;4870681;29;20072;-77
2022/07/10 05:15:05;;;;;;;2.40;0.65;;;22.70;96.70;;;;;;4870217;29;20045;-77
2022/07/10 05:17:33;;;;;;;1.27;0.70;;;22.70;96.70;;;;;;4870677;29;20053;-77
2022/07/10 05:20:01;;;;;;;3.70;0.90;;;22.70;96.70;;;;;;4871106;29;20049;-75
2022/07/10 05:22:30;;;;;;;1.55;0.73;;;22.70;96.70;;;;;;4868954;29;20077;-75
2022/07/10 05:25:00;;;;;;;0.65;0.55;;;22.80;96.70;;;;;;4871487;29;20724;-75
2022/07/10 05:27:28;;;;;;;3.30;0.90;;;22.90;96.70;;;;;;4871735;29;20157;-75
2022/07/10 05:29:55;;;;;;;1.55;0.60;;;22.90;96.70;;;;;;4871370;29;20077;-76
2022/07/10 05:32:25;;;;;;;3.30;0.90;;;22.80;96.70;;;;;;4870620;29;20560;-76
2022/07/10 05:34:52;;;;;;;1.30;0.55;;;22.90;96.70;;;;;;4855316;29;20053;-76
2022/07/10 05:37:20;;;;;;;1.63;0.80;;;23.10;96.70;;;;;;4868946;29;20402;-79
2022/07/10 05:39:49;;;;;;;1.58;0.70;;;23.00;96.70;;;;;;4885588;29;20801;-81
2022/07/10 05:42:17;;;;;;;2.42;0.60;;;23.10;96.70;;;;;;4871009;29;20110;-80
2022/07/10 05:44:45;;;;;;;3.58;1.23;;;23.10;96.70;;;;;;4871304;29;20049;-78
2022/07/10 05:47:13;;;;;;;3.38;0.80;;;23.00;96.70;;;;;;4870563;29;20048;-80
2022/07/10 05:49:41;;;;;;;2.97;1.00;;;23.00;96.70;;;;;;4867147;29;20060;-78
2022/07/10 05:52:09;;;;;;;1.58;0.73;;;23.10;96.70;;;;;;4868226;29;20068;-79
2022/07/10 05:54:37;;;;;;;1.00;0.60;;;23.20;96.70;;;;;;4870158;29;20124;-78
2022/07/10 05:57:06;;;;;;;2.28;1.05;;;23.40;96.70;;;;;;4853403;29;20164;-80
2022/07/10 05:59:34;;;;;;;2.65;0.70;;;23.40;96.70;;;;;;4870851;29;20147;-78
2022/07/10 06:02:03;;;;;;;1.65;1.02;;;23.40;96.70;;;;;;4872079;29;20495;-80
2022/07/10 06:04:31;;;;;;;2.67;0.95;;;23.40;96.70;;;;;;4858360;29;20475;-78
2022/07/10 06:06:59;;;;;;;1.95;0.82;;;23.50;96.70;;;;;;4869245;29;20053;-78
2022/07/10 06:09:27;;;;;;;3.78;1.08;;;23.60;96.70;;;;;;4870734;29;20053;-76
2022/07/10 06:11:55;;;;;;;2.95;0.93;;;23.60;96.70;;;;;;4869275;29;20044;-76
2022/07/10 06:14:24;;;;;;;2.00;1.00;;;23.70;96.70;;;;;;4870126;29;20092;-79
2022/07/10 06:16:52;;;;;;;3.08;1.00;;;23.70;96.70;;;;;;4849927;29;20600;-77
2022/07/10 06:19:23;;;;;;;2.40;0.85;;;23.70;96.70;;;;;;4854119;29;21427;-78
2022/07/10 06:22:30;;;;;;;1.92;0.90;;;23.70;96.70;;;;;;4867468;29;20167;-79
2022/07/10 06:24:39;;;;;;;2.63;0.82;;;23.80;96.70;;;;;;4870848;29;20049;-80
2022/07/10 06:27:07;;;;;;;2.28;0.60;;;23.80;96.70;;;;;;4868816;29;20041;-78
2022/07/10 06:29:36;;;;;;;1.23;0.70;;;23.80;96.70;;;;;;4864832;29;20068;-81
2022/07/10 06:32:05;;;;;;;2.30;0.80;;;23.90;96.70;;;;;;4882733;29;20078;-78
2022/07/10 06:34:33;;;;;;;26.08;23.17;;;23.90;96.70;;;;;;4867953;29;20068;-78
2022/07/10 06:37:01;;;;;;;4.22;3.72;;;23.80;96.70;;;;;;4864607;29;20049;-80
2022/07/10 06:39:36;;;;;;;6.38;3.60;;;23.90;96.70;;;;;;4852968;29;20053;-80
2022/07/10 06:42:05;;;;;;;4.28;1.90;;;24.00;96.70;;;;;;4864580;29;20053;-80
2022/07/10 06:44:42;;;;;;;3.30;1.48;;;24.00;96.70;;;;;;4868784;29;20500;-81
2022/07/10 06:49:58;;;;;;;2.17;1.10;;;24.10;96.70;;;;;;4865993;29;20512;-77
2022/07/10 06:52:26;;;;;;;5.50;0.90;;;24.30;96.70;;;;;;4871039;29;20045;-79
2022/07/10 06:54:54;;;;;;;2.47;0.70;;;24.40;96.70;;;;;;4871447;29;20669;-79
2022/07/10 06:57:23;;;;;;;3.55;0.90;;;24.50;96.70;;;;;;4867351;29;20064;-80
2022/07/10 06:59:52;;;;;;;1.63;0.60;;;24.50;96.70;;;;;;4866560;29;20073;-79
2022/07/10 07:02:20;;;;;;;1.27;0.80;;;24.50;96.70;;;;;;4870074;29;20467;-77
2022/07/10 07:04:48;;;;;;;4.25;1.10;;;24.60;96.70;;;;;;4872174;29;20113;-78
2022/07/10 07:07:16;;;;;;;1.30;0.80;;;24.60;96.70;;;;;;4867858;29;20136;-78
2022/07/10 07:09:52;;;;;;;1.88;0.70;;;24.70;96.70;;;;;;4868173;29;20136;-79
2022/07/10 07:12:19;;;;;;;3.60;0.77;;;24.70;96.70;;;;;;4870516;29;20045;-79
2022/07/10 07:14:48;;;;;;;1.70;0.90;;;24.80;96.70;;;;;;4868901;29;20513;-80
2022/07/10 07:17:33;;;;;;;3.03;0.70;;;24.90;96.70;;;;;;4869472;29;20055;-79
2022/07/10 07:25:35;;;;;;;7.00;4.17;;;24.90;96.70;;;;;;4890236;29;20169;-78
2022/07/10 07:28:03;;;;;;;5.82;3.60;;;25.00;96.70;;;;;;4872151;29;20045;-77
2022/07/10 07:30:31;;;;;;;1.88;1.10;;;25.00;96.70;;;;;;4891226;29;20042;-77
2022/07/10 07:33:00;;;;;;;4.18;2.35;;;25.10;96.70;;;;;;4853929;29;20060;-75
2022/07/10 07:35:28;;;;;;;2.55;1.10;;;25.10;96.70;;;;;;4871075;29;20049;-75
2022/07/10 07:37:56;;;;;;;2.45;1.30;;;25.20;96.70;;;;;;4869129;29;20065;-76
2022/07/10 07:40:25;;;;;;;3.08;1.20;;;25.30;96.70;;;;;;4872384;29;20049;-78
2022/07/10 07:42:53;;;;;;;2.60;1.30;;;25.40;96.70;;;;;;4869227;29;20421;-78
2022/07/10 07:45:22;;;;;;;1.42;0.60;;;25.50;96.70;;;;;;4868203;29;20109;-77
2022/07/10 07:47:51;;;;;;;1.33;1.00;;;25.50;96.70;;;;;;4855558;29;20086;-76
2022/07/10 07:50:22;;;;;;;3.40;1.20;;;25.60;96.70;;;;;;4872696;29;20052;-76
2022/07/10 07:52:50;;;;;;;1.77;0.95;;;25.70;96.70;;;;;;4869011;29;20044;-76
2022/07/10 07:55:20;;;;;;;2.45;0.90;;;25.70;96.60;;;;;;4862720;29;20093;-76
2022/07/10 07:57:53;;;;;;;2.92;0.60;;;25.80;96.60;;;;;;4867654;29;20522;-79
2022/07/10 08:00:22;;;;;;;1.85;0.80;;;25.90;96.10;;;;;;4870233;29;20057;-80
2022/07/10 08:02:51;;;;;;;2.35;0.90;;;26.00;96.00;;;;;;4872917;29;20040;-78
2022/07/10 08:05:23;;;;;;;1.30;0.50;;;26.00;95.90;;;;;;4872208;29;20103;-80
2022/07/10 08:07:52;;;;;;;1.15;0.50;;;26.00;95.10;;;;;;4872567;29;20045;-77
2022/07/10 08:10:22;;;;;;;1.17;0.70;;;26.10;94.70;;;;;;4856496;29;20052;-79
2022/07/10 08:12:50;;;;;;;1.15;0.50;;;26.10;94.80;;;;;;4870610;29;20061;-78
2022/07/10 08:15:22;;;;;;;1.55;0.50;;;26.10;94.40;;;;;;4871619;29;20037;-78
2022/07/10 08:17:51;;;;;;;1.25;0.68;;;26.20;94.50;;;;;;4853843;29;20064;-76
2022/07/10 08:20:22;;;;;;;2.33;0.60;;;26.30;93.60;;;;;;4854210;29;20436;-80
2022/07/10 08:22:52;;;;;;;1.02;0.50;;;26.30;93.50;;;;;;4887605;29;20083;-80
2022/07/10 08:25:27;;;;;;;1.40;0.70;;;26.30;92.30;;;;;;4888102;29;20485;-79
2022/07/10 08:28:00;;;;;;;3.30;1.70;;;26.40;92.30;;;;;;4871660;29;20047;-76
2022/07/10 08:30:29;;;;;;;1.52;0.50;;;26.60;92.50;;;;;;4871701;29;20052;-76
2022/07/10 08:32:57;;;;;;;1.83;0.50;;;26.60;91.20;;;;;;4872155;29;20059;-76
2022/07/10 08:35:26;;;;;;;1.90;0.50;;;26.50;91.60;;;;;;4869847;29;20048;-80
2022/07/10 08:37:54;;;;;;;0.40;0.40;;;26.60;91.00;;;;;;4871104;29;20515;-80
2022/07/10 08:40:23;;;;;;;0.50;0.32;;;26.80;90.40;;;;;;4875034;29;20087;-86
2022/07/10 08:42:51;;;;;;;0.75;0.40;;;26.90;89.30;;;;;;4875877;29;20041;-85
2022/07/10 08:45:20;;;;;;;1.48;0.40;;;27.00;87.40;;;;;;4876705;29;20081;-85
2022/07/10 08:47:49;;;;;;;1.40;0.77;;;27.00;87.20;;;;;;4884488;29;20089;-86
2022/07/10 08:50:21;;;;;;;2.50;0.50;;;27.00;87.00;;;;;;4858776;29;20049;-82
2022/07/10 08:52:59;;;;;;;0.98;0.40;;;27.10;86.30;;;;;;4889139;29;20143;-79
2022/07/10 08:55:28;;;;;;;2.70;0.73;;;27.20;85.70;;;;;;4873701;29;20321;-83
2022/07/10 08:57:56;;;;;;;1.00;0.50;;;27.30;85.50;;;;;;4874749;29;20041;-82
2022/07/10 09:00:24;;;;;;;1.63;0.55;;;27.40;85.50;;;;;;4871864;29;21189;-84
2022/07/10 09:02:54;;;;;;;4.55;0.55;;;27.50;85.40;;;;;;4877732;29;20113;-83
2022/07/10 09:05:23;;;;;;;1.25;0.50;;;27.70;85.80;;;;;;4870565;29;20045;-82
2022/07/10 09:07:53;;;;;;;0.85;0.40;;;27.60;84.50;;;;;;4858335;29;20068;-80
2022/07/10 09:10:24;;;;;;;1.30;0.30;;;27.70;84.40;;;;;;4874414;29;20047;-81
2022/07/10 09:12:54;;;;;;;0.90;0.40;;;27.60;84.90;;;;;;4888938;29;20105;-83
2022/07/10 09:15:24;;;;;;;1.55;0.47;;;27.50;84.30;;;;;;4875371;29;20123;-84
2022/07/10 09:17:57;;;;;;;1.17;0.30;;;27.50;83.10;;;;;;4875840;29;20044;-83
2022/07/10 09:20:27;;;;;;;0.90;0.38;;;27.50;83.70;;;;;;4874900;29;20279;-84
2022/07/10 09:22:59;;;;;;;1.25;0.30;;;27.60;82.80;;;;;;4874523;29;20500;-84
2022/07/10 09:25:32;;;;;;;0.98;0.40;;;27.70;82.20;;;;;;4872879;29;20532;-82
2022/07/10 09:28:05;;;;;;;0.88;0.30;;;27.90;81.30;;;;;;4870639;29;20408;-82
2022/07/10 09:30:34;;;;;;;0.70;0.30;;;27.90;80.90;;;;;;4871700;29;20926;-81
2022/07/10 09:33:25;;;;;;;0.47;0.28;;;28.00;81.30;;;;;;4872779;29;20068;-83
2022/07/10 09:36:05;;;;;;;0.57;0.35;;;28.20;80.70;;;;;;4857221;29;20113;-82
2022/07/10 09:38:53;;;;;;;1.10;0.50;;;28.10;81.10;;;;;;4884905;29;20142;-82
2022/07/10 09:41:24;;;;;;;3.58;0.47;;;28.00;81.00;;;;;;4872967;29;20041;-81
2022/07/10 09:43:55;;;;;;;1.65;0.40;;;28.00;80.60;;;;;;4874455;29;20097;-83
2022/07/10 09:46:26;;;;;;;1.02;0.40;;;28.10;80.90;;;;;;4869610;29;20402;-81
2022/07/10 09:49:12;;;;;;;0.70;0.40;;;28.20;80.60;;;;;;4872692;29;20053;-80
2022/07/10 09:51:42;;;;;;;0.90;0.40;;;28.30;81.00;;;;;;4874199;29;20056;-87
2022/07/10 09:54:18;;;;;;;1.83;0.50;;;28.30;79.70;;;;;;4873965;29;20068;-85
2022/07/10 09:56:47;;;;;;;1.30;0.40;;;28.40;80.50;;;;;;4875076;29;20141;-84
2022/07/10 09:59:17;;;;;;;0.50;0.30;;;28.70;79.60;;;;;;4872440;29;20050;-85
2022/07/10 10:01:46;;;;;;;3.53;0.40;;;28.80;78.40;;;;;;4874279;29;20143;-86
2022/07/10 10:04:16;;;;;;;0.60;0.35;;;28.90;78.40;;;;;;4874153;29;20057;-87
2022/07/10 10:06:50;;;;;;;0.45;0.20;;;29.10;77.30;;;;;;4873944;29;20057;-87
2022/07/10 10:09:24;;;;;;;1.35;0.30;;;29.10;77.70;;;;;;4874671;29;20041;-88
2022/07/10 10:11:58;;;;;;;1.63;0.70;;;29.20;77.60;;;;;;4866623;29;20057;-83
2022/07/10 10:14:27;;;;;;;2.42;1.00;;;29.30;77.10;;;;;;4873010;29;20136;-83
2022/07/10 10:16:56;;;;;;;2.10;0.82;;;29.20;77.40;;;;;;4873178;29;20709;-83
2022/07/10 10:22:13;;;;;;;0.90;0.60;;;29.30;77.50;;;;;;4863353;29;20071;-85
2022/07/10 10:24:45;;;;;;;0.50;0.30;;;29.50;77.50;;;;;;4881290;29;20480;-83
2022/07/10 10:27:15;;;;;;;1.65;0.40;;;29.60;76.90;;;;;;4868364;29;20132;-85
2022/07/10 10:29:45;;;;;;;0.57;0.30;;;29.70;77.20;;;;;;4874553;29;20113;-84
2022/07/10 10:32:13;;;;;;;0.88;0.50;;;29.80;76.20;;;;;;4872784;29;20053;-87
2022/07/10 10:34:42;;;;;;;0.20;0.20;;;29.80;76.30;;;;;;4873516;29;20053;-86
2022/07/10 10:37:33;;;;;;;0.35;0.30;;;29.90;76.70;;;;;;4858116;29;20073;-91
2022/07/10 10:40:05;;;;;;;1.38;0.30;;;30.10;76.20;;;;;;4874176;29;20373;-90
2022/07/10 10:42:37;;;;;;;1.08;0.30;;;30.20;75.70;;;;;;4872752;29;20053;-88
2022/07/10 10:45:24;;;;;;;1.15;0.43;;;30.30;75.40;;;;;;4873571;29;20084;-89
2022/07/10 10:48:02;;;;;;;0.63;0.30;;;30.40;75.80;;;;;;4870717;29;20505;-85
2022/07/10 10:50:51;;;;;;;0.52;0.47;;;30.50;75.50;;;;;;4859502;29;20048;-84
2022/07/10 10:53:22;;;;;;;0.95;0.40;;;30.60;73.90;;;;;;4862713;29;20120;-88
2022/07/10 10:56:24;;;;;;;1.13;0.40;;;30.60;74.20;;;;;;4859713;29;20740;-88
2022/07/10 10:58:52;;;;;;;0.90;0.30;;;30.60;74.60;;;;;;4886395;29;20122;-87
2022/07/10 11:01:26;;;;;;;0.82;0.25;;;30.60;74.60;;;;;;4872707;29;20041;-88
2022/07/10 11:04:17;;;;;;;0.85;0.32;;;30.90;75.10;;;;;;4873711;29;20053;-86
2022/07/10 11:06:48;;;;;;;1.00;0.40;;;30.80;73.30;;;;;;4872075;29;20104;-84
2022/07/10 11:09:28;;;;;;;0.85;0.40;;;30.80;73.50;;;;;;4872175;29;20061;-85
2022/07/10 11:12:05;;;;;;;0.68;0.35;;;30.90;73.50;;;;;;4866561;29;20080;-85
2022/07/10 11:14:36;;;;;;;0.98;0.30;;;31.10;74.10;;;;;;4874201;29;20121;-86
2022/07/10 11:17:05;;;;;;;1.33;0.30;;;31.40;72.60;;;;;;4857211;29;20148;-84
2022/07/10 11:19:35;;;;;;;15.68;11.98;;;31.50;72.10;;;;;;4869547;29;20234;-80
2022/07/10 11:22:29;;;;;;;2.65;1.20;;;31.50;73.70;;;;;;4868197;29;20053;-85
2022/07/10 11:25:13;;;;;;;0.43;0.40;;;31.50;72.60;;;;;;4868027;29;20148;-81
2022/07/10 11:28:09;;;;;;;0.80;0.60;;;31.50;72.20;;;;;;4883034;29;20063;-82
2022/07/10 11:30:49;;;;;;;1.13;0.50;;;31.60;73.00;;;;;;4887114;29;20053;-84
2022/07/10 11:33:20;;;;;;;1.40;0.40;;;31.70;72.40;;;;;;4866750;29;20049;-83
2022/07/10 11:35:49;;;;;;;1.25;0.55;;;31.80;73.10;;;;;;4873283;29;20105;-83
2022/07/10 11:38:21;;;;;;;0.93;0.40;;;31.80;73.40;;;;;;4876869;29;20049;-85
2022/07/10 11:40:54;;;;;;;0.57;0.38;;;31.90;73.30;;;;;;4874034;29;20053;-82
2022/07/10 11:43:27;;;;;;;1.08;0.60;;;32.00;73.70;;;;;;4877275;29;20120;-81
2022/07/10 11:46:00;;;;;;;1.45;0.40;;;32.10;73.60;;;;;;4875055;29;20061;-83
2022/07/10 11:48:29;;;;;;;0.68;0.35;;;32.00;73.40;;;;;;4876233;29;20139;-81
2022/07/10 11:50:57;;;;;;;0.90;0.50;;;32.10;73.70;;;;;;4873828;29;20083;-82
2022/07/10 11:53:28;;;;;;;1.30;0.35;;;32.20;73.40;;;;;;4873714;29;20052;-80
2022/07/10 11:55:59;;;;;;;1.75;0.40;;;32.30;72.50;;;;;;4873020;29;20056;-80
2022/07/10 11:58:29;;;;;;;0.80;0.40;;;32.20;73.40;;;;;;4874450;29;20055;-83
2022/07/10 12:00:59;;;;;;;0.70;0.43;;;32.20;73.30;;;;;;4869959;29;20047;-80
2022/07/10 12:03:27;;;;;;;1.13;0.50;;;32.50;74.00;;;;;;4867650;29;20049;-81
2022/07/10 12:06:03;;;;;;;2.78;0.50;;;32.50;73.30;;;;;;4874427;29;20053;-82
2022/07/10 12:08:43;;;;;;;2.08;0.50;;;32.60;73.00;;;;;;4873280;29;20641;-78
2022/07/10 12:11:12;;;;;;;1.70;0.60;;;32.70;73.20;;;;;;4857767;29;20059;-81
2022/07/10 12:13:42;;;;;;;0.65;0.40;;;32.70;73.90;;;;;;4874009;29;20489;-80
2022/07/10 12:16:11;;;;;;;1.27;0.47;;;32.80;73.80;;;;;;4873225;29;20053;-81
2022/07/10 12:18:41;;;;;;;1.15;0.60;;;32.80;73.80;;;;;;4857535;29;20049;-82
2022/07/10 12:21:12;;;;;;;0.85;0.50;;;32.70;73.60;;;;;;4870998;29;20140;-83
2022/07/10 12:23:43;;;;;;;0.82;0.50;;;32.80;74.70;;;;;;4875032;29;20048;-80
2022/07/10 12:26:13;;;;;;;2.47;0.50;;;33.00;74.90;;;;;;4857465;29;20057;-80
2022/07/10 12:28:54;;;;;;;0.50;0.40;;;32.80;74.00;;;;;;4859584;29;20373;-80
2022/07/10 12:31:24;;;;;;;0.75;0.45;;;33.00;75.30;;;;;;4874145;29;20057;-82
2022/07/10 12:33:57;;;;;;;0.73;0.50;;;33.20;74.40;;;;;;4873894;29;20135;-85
2022/07/10 12:36:40;;;;;;;1.08;0.60;;;33.20;74.50;;;;;;4872459;29;20097;-85
2022/07/10 12:39:08;;;;;;;1.77;0.52;;;33.20;74.60;;;;;;4883818;29;20937;-82
2022/07/10 12:41:54;;;;;;;0.63;0.47;;;33.10;74.40;;;;;;4854979;29;20536;-79
2022/07/10 12:44:39;;;;;;;0.73;0.45;;;33.10;74.40;;;;;;4868050;29;20057;-79
2022/07/10 12:47:09;;;;;;;1.33;0.70;;;33.30;75.20;;;;;;4868660;29;20585;-80
2022/07/10 12:49:50;;;;;;;1.15;0.80;;;33.20;74.50;;;;;;4871369;29;20059;-80
2022/07/10 12:52:27;;;;;;;1.05;0.50;;;33.20;75.30;;;;;;4871944;29;20055;-84
2022/07/10 12:55:15;;;;;;;2.10;0.85;;;33.20;74.80;;;;;;4882287;29;20053;-84
2022/07/10 12:57:51;;;;;;;2.22;0.70;;;33.40;76.00;;;;;;4874566;29;20045;-83
2022/07/10 13:00:22;;;;;;;1.45;0.73;;;33.40;75.80;;;;;;4873763;29;20045;-84
2022/07/10 13:02:58;;;;;;;2.13;0.70;;;33.50;76.80;;;;;;4872143;29;20485;-84
2022/07/10 13:05:27;;;;;;;0.88;0.50;;;33.70;76.20;;;;;;4868168;29;20056;-84
2022/07/10 13:08:10;;;;;;;1.33;0.60;;;33.50;76.00;;;;;;4874573;29;20045;-84
2022/07/10 13:10:39;;;;;;;3.75;0.80;;;33.50;76.00;;;;;;4872718;29;20074;-86
2022/07/10 13:13:07;;;;;;;0.85;0.63;;;33.40;75.90;;;;;;4874246;29;20393;-84
2022/07/10 13:15:44;;;;;;;1.00;0.60;;;33.70;76.00;;;;;;4874250;29;20049;-84